Time;durP1;ratioP1;P1;durP2;ratioP2;P2;SDS_P1;SDS_P2;PMS_P1;PMS_P2;Temp;Humidity;BMP_temperature;BMP_pressure;BME280_temperature;BME280_humidity;BME280_pressure;Samples;Min_cycle;Max_cycle;Signal;HPM_P1;HPM_P2
2021/08/31 00:02:17;;;;;;;17.65;10.63;;;;;;;22.72;51.89;99785.52;1771306;80;21232;-55
2021/08/31 00:05:23;;;;;;;22.82;11.30;;;;;;;22.76;51.76;99787.22;1771290;80;21193;-55
2021/08/31 00:08:32;;;;;;;20.23;10.63;;;;;;;22.76;52.02;99786.67;1770981;80;21288;-55
2021/08/31 00:11:39;;;;;;;16.77;10.25;;;;;;;22.77;51.71;99788.34;1770948;81;21868;-55
2021/08/31 00:14:44;;;;;;;22.90;11.30;;;;;;;22.78;51.91;99782.22;1771092;81;21220;-56
2021/08/31 00:17:51;;;;;;;18.87;11.95;;;;;;;22.79;52.57;99783.34;1771580;80;21951;-55
2021/08/31 00:20:58;;;;;;;21.95;11.03;;;;;;;22.78;53.20;99787.25;1770962;80;21280;-55
2021/08/31 00:24:05;;;;;;;21.87;11.73;;;;;;;22.75;51.95;99778.57;1771095;81;21698;-55
2021/08/31 00:27:13;;;;;;;19.37;10.58;;;;;;;22.74;51.84;99779.11;1771484;80;21216;-56
2021/08/31 00:30:19;;;;;;;21.15;11.12;;;;;;;22.71;51.65;99773.22;1771116;81;21754;-55
2021/08/31 00:33:25;;;;;;;22.15;11.68;;;;;;;22.68;51.71;99771.83;1770883;81;21817;-56
2021/08/31 00:36:32;;;;;;;20.55;11.12;;;;;;;22.68;52.36;99768.19;1771193;81;21831;-55
2021/08/31 00:39:39;;;;;;;18.25;11.12;;;;;;;22.66;51.70;99771.25;1771050;80;21948;-55
2021/08/31 00:42:47;;;;;;;17.20;10.88;;;;;;;22.64;51.59;99780.47;1770943;80;21781;-55
2021/08/31 00:45:53;;;;;;;22.52;10.58;;;;;;;22.60;51.69;99772.87;1770774;80;21174;-55
2021/08/31 00:49:03;;;;;;;21.15;10.30;;;;;;;22.58;51.62;99777.91;1771988;80;21256;-55
2021/08/31 00:52:08;;;;;;;25.25;10.60;;;;;;;22.54;51.44;99773.95;1771542;80;21212;-55
2021/08/31 00:55:18;;;;;;;19.75;11.18;;;;;;;22.52;51.31;99771.98;1770988;80;21228;-54
2021/08/31 00:58:18;;;;;;;22.32;10.68;;;;;;;22.51;52.24;99777.25;1770984;81;21197;-55
2021/08/31 01:01:23;;;;;;;22.25;11.45;;;;;;;22.49;52.04;99778.92;1770957;80;21184;-55
2021/08/31 01:04:32;;;;;;;21.17;11.22;;;;;;;22.51;51.84;99777.25;1771252;80;21862;-55
2021/08/31 01:07:39;;;;;;;20.25;11.50;;;;;;;22.54;51.94;99779.53;1770976;80;21275;-55
2021/08/31 01:10:45;;;;;;;19.40;11.35;;;;;;;22.55;52.38;99774.27;1771049;80;21678;-55
2021/08/31 01:13:53;;;;;;;19.65;11.12;;;;;;;22.56;52.12;99781.51;1772053;80;21852;-55
2021/08/31 01:16:59;;;;;;;20.55;11.57;;;;;;;22.59;51.49;99769.27;1771240;80;21201;-55
2021/08/31 01:20:06;;;;;;;25.35;11.55;;;;;;;22.63;51.92;99775.97;1771223;80;21209;-55
2021/08/31 01:23:13;;;;;;;24.10;11.50;;;;;;;22.63;51.67;99768.18;1770972;80;21801;-55
2021/08/31 01:26:20;;;;;;;20.80;10.85;;;;;;;22.64;51.87;99766.52;1770913;81;22123;-55
2021/08/31 01:29:26;;;;;;;17.35;11.20;;;;;;;22.62;52.08;99765.09;1771224;80;21263;-55
2021/08/31 01:32:30;;;;;;;26.17;11.48;;;;;;;22.62;52.26;99765.09;1770923;81;21193;-56
2021/08/31 01:35:37;;;;;;;31.20;12.33;;;;;;;22.59;52.09;99762.84;1770926;81;21279;-55
2021/08/31 01:38:44;;;;;;;16.30;10.63;;;;;;;22.58;51.77;99756.98;1771086;80;21882;-56
2021/08/31 01:41:50;;;;;;;17.45;10.90;;;;;;;22.59;51.85;99772.59;1770753;80;21249;-55
2021/08/31 01:44:56;;;;;;;22.00;12.15;;;;;;;22.59;51.99;99770.66;1770676;80;21225;-56
2021/08/31 01:48:01;;;;;;;24.95;11.45;;;;;;;22.63;51.92;99768.18;1771187;80;21240;-55
2021/08/31 01:51:07;;;;;;;21.37;11.48;;;;;;;22.61;51.49;99766.20;1770970;80;21185;-55
2021/08/31 01:54:14;;;;;;;23.87;11.68;;;;;;;22.61;51.33;99766.20;1770941;80;21772;-55
2021/08/31 01:57:19;;;;;;;21.90;11.03;;;;;;;22.61;51.97;99769.81;1771645;80;21335;-55
2021/08/31 02:00:24;;;;;;;18.55;10.80;;;;;;;22.62;52.38;99773.45;1770845;80;21196;-55
2021/08/31 02:03:31;;;;;;;22.17;10.98;;;;;;;22.61;52.77;99770.39;1771403;80;21718;-56
2021/08/31 02:06:37;;;;;;;20.95;11.88;;;;;;;22.58;52.62;99767.56;1771136;81;21192;-56
2021/08/31 02:09:42;;;;;;;25.15;11.70;;;;;;;22.56;52.30;99770.34;1770818;80;21207;-56
2021/08/31 02:12:49;;;;;;;19.67;11.38;;;;;;;22.51;52.61;99761.91;1770920;80;21745;-56
2021/08/31 02:15:55;;;;;;;20.20;11.03;;;;;;;22.45;53.69;99768.02;1770653;80;21182;-56
2021/08/31 02:19:02;;;;;;;25.02;11.38;;;;;;;22.40;53.95;99765.73;1771470;80;21797;-56
2021/08/31 02:22:09;;;;;;;22.17;11.60;;;;;;;22.35;54.56;99760.96;1772099;80;21201;-55
2021/08/31 02:25:17;;;;;;;22.95;11.12;;;;;;;22.27;53.86;99759.20;1771500;80;21197;-57
2021/08/31 02:28:23;;;;;;;19.17;11.03;;;;;;;22.23;54.27;99762.26;1762406;80;21201;-56
2021/08/31 02:31:29;;;;;;;17.25;11.00;;;;;;;22.14;54.25;99748.80;1763280;81;21225;-57
2021/08/31 02:34:36;;;;;;;20.25;10.93;;;;;;;22.08;54.01;99762.42;1771276;80;21844;-57
2021/08/31 02:37:41;;;;;;;28.35;11.38;;;;;;;22.05;53.67;99757.92;1771532;80;21188;-57
2021/08/31 02:40:47;;;;;;;23.47;11.57;;;;;;;21.99;54.14;99769.56;1771018;80;21753;-57
2021/08/31 02:43:53;;;;;;;25.08;12.15;;;;;;;21.96;54.58;99765.91;1770870;80;21220;-57
2021/08/31 02:47:01;;;;;;;19.75;11.20;;;;;;;21.92;54.38;99773.69;1771127;80;21726;-57
2021/08/31 02:50:06;;;;;;;25.62;11.63;;;;;;;21.87;54.20;99771.69;1771103;81;21288;-56
2021/08/31 02:53:14;;;;;;;26.82;12.00;;;;;;;21.83;54.97;99774.73;1771224;80;21713;-56
2021/08/31 02:56:19;;;;;;;20.70;11.60;;;;;;;21.80;56.02;99778.02;1770921;81;21189;-56
2021/08/31 02:59:25;;;;;;;21.12;12.33;;;;;;;21.74;55.67;99779.05;1771012;80;21733;-56
2021/08/31 03:02:32;;;;;;;21.77;12.05;;;;;;;21.70;55.28;99784.87;1770880;81;21782;-57
2021/08/31 03:05:38;;;;;;;18.70;11.83;;;;;;;21.67;55.58;99777.58;1771200;80;21765;-56
2021/08/31 03:08:45;;;;;;;19.32;11.25;;;;;;;21.60;55.51;99769.42;1770889;80;21193;-55
2021/08/31 03:11:51;;;;;;;22.30;11.85;;;;;;;21.56;55.78;99771.61;1771072;80;21264;-55
2021/08/31 03:14:56;;;;;;;18.48;11.38;;;;;;;21.52;56.24;99762.08;1771123;80;21200;-55
2021/08/31 03:18:03;;;;;;;17.52;11.48;;;;;;;21.49;56.77;99762.60;1771155;80;21849;-55
2021/08/31 03:21:10;;;;;;;24.07;12.13;;;;;;;21.46;56.88;99763.98;1770950;80;21196;-54
2021/08/31 03:24:16;;;;;;;24.72;11.48;;;;;;;21.42;56.87;99768.38;1771118;80;21773;-55
2021/08/31 03:27:22;;;;;;;27.15;11.57;;;;;;;21.39;57.14;99761.12;1770982;80;21750;-54
2021/08/31 03:30:28;;;;;;;22.07;11.90;;;;;;;21.36;56.80;99761.64;1770061;80;21733;-55
2021/08/31 03:33:35;;;;;;;20.17;12.23;;;;;;;21.36;56.67;99753.29;1775270;79;21750;-55
2021/08/31 03:36:45;;;;;;;22.77;11.80;;;;;;;21.37;57.46;99760.53;1770610;80;21196;-55
2021/08/31 03:39:52;;;;;;;26.45;12.30;;;;;;;21.37;57.74;99761.38;1770750;81;21710;-56
2021/08/31 03:42:58;;;;;;;22.05;11.78;;;;;;;21.36;58.01;99765.25;1770350;81;21233;-55
2021/08/31 03:46:07;;;;;;;18.70;11.28;;;;;;;21.35;58.45;99758.55;1764322;81;21276;-55
2021/08/31 03:49:14;;;;;;;19.67;10.78;;;;;;;21.33;57.83;99771.88;1770965;81;21769;-55
2021/08/31 03:52:19;;;;;;;22.95;13.08;;;;;;;21.35;57.41;99769.14;1771242;81;21188;-55
2021/08/31 03:55:25;;;;;;;21.17;11.93;;;;;;;21.36;58.15;99762.46;1794444;79;21359;-55
2021/08/31 03:58:31;;;;;;;19.20;11.57;;;;;;;21.37;58.74;99775.30;1802100;79;21367;-55
2021/08/31 04:01:39;;;;;;;21.00;12.40;;;;;;;21.39;58.80;99770.87;1802783;79;21686;-54
2021/08/31 04:04:46;;;;;;;19.62;12.28;;;;;;;21.41;58.30;99775.59;1802742;79;21335;-54
2021/08/31 04:07:51;;;;;;;25.12;12.65;;;;;;;21.43;58.29;99774.26;1802682;79;21338;-55
2021/08/31 04:10:59;;;;;;;25.68;14.85;;;;;;;21.45;58.55;99777.63;1801242;79;21774;-55
2021/08/31 04:14:10;;;;;;;23.77;13.70;;;;;;;21.47;58.72;99780.97;1802460;79;21224;-55
2021/08/31 04:17:16;;;;;;;23.25;13.55;;;;;;;21.49;59.01;99770.42;1802372;79;21395;-55
2021/08/31 04:20:24;;;;;;;25.12;13.62;;;;;;;21.52;59.69;99776.00;1802039;78;21754;-55
2021/08/31 04:23:31;;;;;;;25.00;12.15;;;;;;;21.54;60.54;99768.23;1803356;79;21689;-55
2021/08/31 04:26:36;;;;;;;25.80;12.65;;;;;;;21.57;59.77;99771.34;1802523;79;21200;-55
2021/08/31 04:29:46;;;;;;;23.55;12.15;;;;;;;21.63;60.07;99764.72;1802630;79;21690;-56
2021/08/31 04:32:53;;;;;;;22.13;12.00;;;;;;;21.69;59.41;99763.66;1780117;79;22177;-56
2021/08/31 04:36:01;;;;;;;21.75;11.45;;;;;;;21.74;60.21;99766.50;1770106;81;21185;-55
2021/08/31 04:39:07;;;;;;;19.95;11.68;;;;;;;21.81;60.09;99760.22;1770836;80;21817;-54
2021/08/31 04:42:15;;;;;;;26.12;12.30;;;;;;;21.85;59.01;99755.78;1771193;80;21187;-55
2021/08/31 04:45:23;;;;;;;26.30;12.43;;;;;;;21.91;58.80;99739.38;1769954;81;21713;-55
2021/08/31 04:48:30;;;;;;;25.75;11.63;;;;;;;21.96;58.26;99735.25;1771987;80;21193;-54
2021/08/31 04:51:36;;;;;;;19.75;12.00;;;;;;;22.02;58.43;99745.34;1771058;80;21182;-54
2021/08/31 04:54:42;;;;;;;22.27;11.43;;;;;;;22.08;57.85;99740.66;1771122;80;21339;-55
2021/08/31 04:57:49;;;;;;;22.25;11.85;;;;;;;22.14;57.49;99752.98;1772984;79;21760;-54
2021/08/31 05:00:55;;;;;;;23.22;11.73;;;;;;;22.22;57.73;99748.86;1773698;79;21232;-54
2021/08/31 05:04:02;;;;;;;19.75;12.37;;;;;;;22.29;58.08;99757.00;1769290;80;21201;-55
2021/08/31 05:07:11;;;;;;;23.90;12.20;;;;;;;22.36;57.36;99755.66;1769845;80;21297;-54
2021/08/31 05:10:18;;;;;;;25.15;12.00;;;;;;;22.46;57.78;99760.47;1761169;81;21205;-54
2021/08/31 05:13:24;;;;;;;20.75;12.15;;;;;;;22.53;57.88;99765.31;1769750;80;21200;-53
2021/08/31 05:16:30;;;;;;;21.20;12.10;;;;;;;22.61;56.80;99774.00;1769307;81;21722;-55
2021/08/31 05:19:36;;;;;;;23.45;13.18;;;;;;;22.73;55.84;99777.99;1770146;80;21208;-56
2021/08/31 05:22:42;;;;;;;21.00;11.70;;;;;;;22.83;55.45;99772.48;1769659;80;21227;-55
2021/08/31 05:25:53;;;;;;;26.15;12.20;;;;;;;22.90;55.16;99782.28;1779064;79;21161;-55
2021/08/31 05:29:00;;;;;;;25.57;11.95;;;;;;;22.95;55.53;99778.13;1768961;80;21721;-56
2021/08/31 05:32:06;;;;;;;22.73;13.28;;;;;;;22.98;55.75;99784.57;1770115;79;21232;-55
2021/08/31 05:35:13;;;;;;;19.60;12.70;;;;;;;23.01;55.66;99784.02;1775295;79;21224;-55
2021/08/31 05:38:18;;;;;;;26.15;13.00;;;;;;;23.04;55.86;99784.05;1769550;80;21197;-55
2021/08/31 05:41:24;;;;;;;22.50;12.20;;;;;;;23.07;56.15;99787.70;1769146;81;21197;-54
2021/08/31 05:44:30;;;;;;;27.42;13.30;;;;;;;23.10;55.61;99792.73;1769449;80;21260;-54
2021/08/31 05:47:36;;;;;;;22.35;13.15;;;;;;;23.12;54.52;99784.94;1780967;79;21187;-54
2021/08/31 05:50:42;;;;;;;31.30;12.68;;;;;;;23.16;54.49;99791.64;1774292;79;21720;-55
2021/08/31 05:53:48;;;;;;;27.70;13.13;;;;;;;23.19;54.32;99784.97;1769143;80;21205;-56
2021/08/31 05:56:52;;;;;;;23.73;13.40;;;;;;;23.23;54.08;99786.09;1772358;79;21810;-56
2021/08/31 05:59:57;;;;;;;21.50;13.15;;;;;;;23.25;53.95;99793.67;1787677;79;21175;-56
2021/08/31 06:03:05;;;;;;;26.82;14.50;;;;;;;23.30;53.86;99792.31;1769506;81;21162;-55
2021/08/31 06:06:12;;;;;;;26.48;13.72;;;;;;;23.33;54.19;99790.91;1786885;79;21747;-56
2021/08/31 06:09:17;;;;;;;30.12;14.78;;;;;;;23.38;54.63;99790.94;1783069;79;21188;-55
2021/08/31 06:12:23;;;;;;;25.12;13.85;;;;;;;23.42;54.07;99793.48;1782077;79;21241;-56
2021/08/31 06:15:29;;;;;;;21.60;13.90;;;;;;;23.47;53.54;99789.28;1782179;79;21166;-54
2021/08/31 06:18:37;;;;;;;29.10;13.30;;;;;;;23.53;53.23;99790.42;1770018;80;21231;-55
2021/08/31 06:21:42;;;;;;;24.10;14.30;;;;;;;23.57;52.83;99785.14;1737903;81;21729;-54
2021/08/31 06:24:47;;;;;;;23.02;14.38;;;;;;;23.63;52.72;99798.58;1769467;80;21224;-54
2021/08/31 06:27:53;;;;;;;26.52;14.05;;;;;;;23.68;53.08;99793.83;1771289;79;21769;-56
2021/08/31 06:31:00;;;;;;;23.47;13.48;;;;;;;23.73;54.00;99795.25;1769760;80;21235;-55
2021/08/31 06:34:06;;;;;;;26.07;13.53;;;;;;;23.77;57.18;99804.75;1769652;80;21867;-57
2021/08/31 06:37:14;;;;;;;20.80;12.40;;;;;;;23.80;58.90;99809.78;1772735;79;21239;-54
2021/08/31 06:40:19;;;;;;;20.70;13.93;;;;;;;23.81;59.78;99815.67;1796095;79;21202;-55
2021/08/31 06:43:24;;;;;;;18.75;14.28;;;;;;;23.79;60.82;99816.50;1785718;79;21173;-57
2021/08/31 06:46:31;;;;;;;28.85;16.17;;;;;;;23.77;61.26;99820.13;1776352;79;21751;-55
2021/08/31 06:49:38;;;;;;;22.85;15.08;;;;;;;23.81;61.73;99824.61;1770031;80;21273;-54
2021/08/31 06:52:44;;;;;;;22.48;13.83;;;;;;;23.89;62.19;99836.11;1783057;79;21186;-54
2021/08/31 06:55:49;;;;;;;20.17;15.15;;;;;;;23.88;62.66;99828.81;1784904;79;21331;-55
2021/08/31 06:58:57;;;;;;;23.10;14.43;;;;;;;23.90;62.99;99843.92;1772518;79;21351;-54
2021/08/31 07:02:04;;;;;;;19.95;14.60;;;;;;;23.90;63.29;99838.33;1779866;79;21187;-54
2021/08/31 07:05:10;;;;;;;20.50;14.07;;;;;;;23.92;63.86;99842.55;1775190;79;21265;-55
2021/08/31 07:08:17;;;;;;;20.50;15.48;;;;;;;23.96;64.38;99841.45;1717832;82;21215;-55
2021/08/31 07:11:21;;;;;;;21.48;16.80;;;;;;;24.04;64.45;99852.12;1732565;82;21247;-55
2021/08/31 07:14:27;;;;;;;23.40;17.82;;;;;;;24.09;64.62;99844.56;1727879;82;21213;-56
2021/08/31 07:17:34;;;;;;;27.45;18.20;;;;;;;24.19;64.87;99853.53;1776272;79;22050;-55
2021/08/31 07:20:40;;;;;;;24.43;18.02;;;;;;;24.22;64.85;99863.62;1774315;79;21687;-56
2021/08/31 07:23:47;;;;;;;25.40;18.40;;;;;;;24.22;64.74;99868.36;1787265;79;21157;-56
2021/08/31 07:26:54;;;;;;;28.55;19.80;;;;;;;24.22;64.69;99862.77;1779998;79;21394;-53
2021/08/31 07:30:00;;;;;;;27.45;19.70;;;;;;;24.27;64.71;99861.38;1784862;79;21188;-55
2021/08/31 07:33:06;;;;;;;23.45;18.82;;;;;;;24.29;64.82;99869.77;1792789;79;21232;-54
2021/08/31 07:36:12;;;;;;;26.17;19.77;;;;;;;24.31;64.61;99867.54;1780824;79;21515;-54
2021/08/31 07:39:19;;;;;;;28.92;20.50;;;;;;;24.40;64.75;99872.89;1787919;79;21735;-55
2021/08/31 07:42:25;;;;;;;31.55;21.57;;;;;;;24.40;64.31;99877.63;1800087;79;21671;-54
2021/08/31 07:45:30;;;;;;;28.35;21.33;;;;;;;24.34;64.15;99871.77;1769534;81;21212;-54
2021/08/31 07:48:36;;;;;;;29.60;21.90;;;;;;;24.29;64.18;99866.97;1769662;80;21169;-55
2021/08/31 07:51:42;;;;;;;27.02;21.40;;;;;;;24.21;63.95;99866.14;1779745;79;21229;-54
2021/08/31 07:54:48;;;;;;;27.17;21.90;;;;;;;24.17;63.84;99869.75;1800121;79;21483;-55
2021/08/31 07:57:53;;;;;;;30.70;22.67;;;;;;;24.17;63.94;99871.14;1780487;79;21170;-54
2021/08/31 08:00:58;;;;;;;30.00;20.40;;;;;;;24.24;64.36;99875.38;1768862;80;21196;-54
2021/08/31 08:04:05;;;;;;;28.27;20.23;;;;;;;24.39;63.79;99880.13;1770307;80;21252;-53
2021/08/31 08:07:10;;;;;;;23.18;18.80;;;;;;;24.46;62.97;99879.31;1780259;79;21708;-52
2021/08/31 08:10:17;;;;;;;26.42;19.87;;;;;;;24.49;63.08;99871.20;1788145;79;21865;-55
2021/08/31 08:13:23;;;;;;;24.90;19.07;;;;;;;24.58;63.37;99872.88;1792626;79;21174;-54
2021/08/31 08:16:29;;;;;;;25.05;20.20;;;;;;;24.74;63.03;99875.98;1783117;79;21185;-55
2021/08/31 08:19:34;;;;;;;23.60;19.00;;;;;;;24.80;62.31;99886.91;1790120;79;21220;-55
2021/08/31 08:22:41;;;;;;;27.35;18.95;;;;;;;24.73;62.29;99882.17;1776898;79;21534;-54
2021/08/31 08:25:47;;;;;;;24.05;19.55;;;;;;;24.76;62.73;99883.01;1780749;79;21765;-54
2021/08/31 08:28:52;;;;;;;25.48;19.02;;;;;;;24.78;62.83;99881.33;1783110;79;21158;-54
2021/08/31 08:31:57;;;;;;;22.62;18.75;;;;;;;24.69;62.54;99886.63;1772257;79;21165;-54
2021/08/31 08:35:02;;;;;;;21.15;18.70;;;;;;;24.58;63.16;99886.87;1791134;79;21200;-53
2021/08/31 08:38:08;;;;;;;28.25;18.92;;;;;;;24.47;62.95;99895.83;1777384;79;21172;-53
2021/08/31 08:41:15;;;;;;;24.10;17.02;;;;;;;24.41;62.98;99898.34;1764658;81;21189;-53
2021/08/31 08:44:22;;;;;;;23.75;17.42;;;;;;;24.33;63.41;99894.69;1769692;79;21212;-54
2021/08/31 08:47:30;;;;;;;24.87;16.80;;;;;;;24.36;64.15;99902.53;1775993;79;21799;-54
2021/08/31 08:50:36;;;;;;;19.23;16.07;;;;;;;24.44;63.85;99899.73;1778247;79;21192;-57
2021/08/31 08:53:43;;;;;;;21.27;16.57;;;;;;;24.48;63.52;99899.48;1779375;79;21181;-57
2021/08/31 08:56:51;;;;;;;24.72;17.00;;;;;;;24.56;63.49;99896.13;1792671;79;21243;-57
2021/08/31 08:59:57;;;;;;;19.75;16.25;;;;;;;24.61;63.27;99891.36;1788900;79;21165;-56
2021/08/31 09:03:03;;;;;;;24.63;16.67;;;;;;;24.66;63.67;99905.39;1752062;80;21223;-56
2021/08/31 09:06:21;;;;;;;20.00;15.50;;;;;;;24.76;63.50;99901.20;1778801;79;21180;-57
2021/08/31 09:09:29;;;;;;;19.42;15.38;;;;;;;24.86;63.21;99911.56;1765701;80;21211;-57
2021/08/31 09:12:41;;;;;;;18.07;15.00;;;;;;;24.90;62.54;99904.27;1766024;81;21200;-55
2021/08/31 09:15:48;;;;;;;19.00;15.78;;;;;;;24.92;62.52;99913.24;1773575;79;21510;-56
2021/08/31 09:19:00;;;;;;;21.02;16.50;;;;;;;24.93;62.26;99914.91;1764222;81;21757;-57
2021/08/31 09:22:26;;;;;;;20.00;15.23;;;;;;;25.00;62.34;99905.67;1765067;81;21180;-55
2021/08/31 09:25:47;;;;;;;17.07;14.53;;;;;;;25.13;61.96;99910.71;1765420;80;21208;-55
2021/08/31 09:28:54;;;;;;;20.77;14.78;;;;;;;25.19;61.87;99919.94;1764831;81;21168;-54
2021/08/31 09:32:04;;;;;;;17.12;14.47;;;;;;;25.22;61.48;99923.57;1768791;79;21219;-56
2021/08/31 09:35:09;;;;;;;18.82;14.93;;;;;;;25.16;61.45;99925.55;1759144;79;21197;-55
2021/08/31 09:38:17;;;;;;;18.85;14.07;;;;;;;25.22;61.61;99924.97;1763008;79;21597;-56
2021/08/31 09:41:48;;;;;;;19.62;15.35;;;;;;;25.25;61.59;99932.80;1770322;79;21182;-55
2021/08/31 09:44:54;;;;;;;20.02;15.68;;;;;;;25.18;61.42;99947.69;1770908;79;21228;-54
2021/08/31 09:47:59;;;;;;;18.15;15.83;;;;;;;25.12;61.51;99938.43;1765571;79;21181;-54
2021/08/31 09:51:04;;;;;;;18.80;16.02;;;;;;;25.07;61.83;99944.61;1773575;79;21252;-54
2021/08/31 09:54:28;;;;;;;20.88;15.63;;;;;;;25.00;61.86;99951.89;1774447;79;21216;-55
2021/08/31 09:57:41;;;;;;;18.25;15.05;;;;;;;24.94;62.23;99965.63;1769898;81;21185;-55
2021/08/31 10:00:50;;;;;;;16.90;15.05;;;;;;;24.82;61.80;99970.09;1769736;80;21217;-56
2021/08/31 10:03:56;;;;;;;20.48;15.25;;;;;;;24.69;62.05;99974.83;1770024;80;21213;-55
2021/08/31 10:07:01;;;;;;;22.07;15.28;;;;;;;24.51;62.57;99982.34;1781708;79;21157;-56
2021/08/31 10:10:07;;;;;;;21.55;14.75;;;;;;;24.40;63.14;99989.02;1786720;79;21362;-55
2021/08/31 10:13:21;;;;;;;19.12;16.02;;;;;;;24.32;63.28;99994.30;1787579;79;21177;-54
2021/08/31 10:16:26;;;;;;;17.27;14.07;;;;;;;24.26;63.07;99999.03;1774845;79;21209;-55
2021/08/31 10:19:32;;;;;;;20.50;14.00;;;;;;;24.18;62.96;99993.95;1778268;79;21751;-56
2021/08/31 10:22:38;;;;;;;23.70;17.07;;;;;;;24.19;63.04;99992.86;1768607;80;21187;-57
2021/08/31 10:25:46;;;;;;;24.12;19.12;;;;;;;24.16;63.70;100001.80;1786181;79;21770;-58
2021/08/31 10:28:54;;;;;;;23.18;17.30;;;;;;;24.07;64.72;100007.62;1800567;79;21339;-56
2021/08/31 10:32:01;;;;;;;23.95;16.77;;;;;;;23.96;65.40;100012.84;1801288;79;21390;-57
2021/08/31 10:35:09;;;;;;;25.27;18.07;;;;;;;23.82;65.94;100021.44;1801520;79;21391;-56
2021/08/31 10:38:19;;;;;;;24.60;17.07;;;;;;;23.79;65.97;100018.34;1800114;79;21375;-57
2021/08/31 10:41:48;;;;;;;18.25;14.75;;;;;;;23.78;66.21;100025.91;1801464;79;21315;-57
2021/08/31 10:44:59;;;;;;;22.77;15.70;;;;;;;23.78;65.97;100023.11;1764687;79;21216;-57
2021/08/31 10:48:04;;;;;;;20.40;15.60;;;;;;;23.78;65.80;100018.92;1800570;79;21317;-59
2021/08/31 10:51:17;;;;;;;19.17;15.13;;;;;;;23.81;65.75;100014.72;1789436;79;21830;-57
2021/08/31 10:54:45;;;;;;;19.35;14.40;;;;;;;23.90;65.21;100022.33;1794999;79;21355;-57
2021/08/31 10:57:54;;;;;;;18.05;13.83;;;;;;;23.95;64.68;100019.56;1784958;79;21962;-56
2021/08/31 11:01:01;;;;;;;19.02;14.75;;;;;;;24.05;64.61;100009.87;1769427;79;21196;-57
2021/08/31 11:04:12;;;;;;;18.75;13.78;;;;;;;24.18;64.20;100017.73;1776242;79;21279;-57
2021/08/31 11:07:22;;;;;;;16.77;14.18;;;;;;;24.30;63.29;100027.30;1762705;79;21688;-58
2021/08/31 11:10:32;;;;;;;16.75;12.78;;;;;;;24.36;62.68;100026.20;1697855;82;21208;-57
2021/08/31 11:13:38;;;;;;;16.32;12.35;;;;;;;24.44;62.25;100031.27;1722552;82;21548;-57
2021/08/31 11:16:43;;;;;;;18.32;12.55;;;;;;;24.46;61.94;100028.50;1790549;79;22034;-57
2021/08/31 11:19:48;;;;;;;17.75;12.73;;;;;;;24.52;61.78;100026.54;1787625;79;21192;-57
2021/08/31 11:23:20;;;;;;;14.70;11.63;;;;;;;24.59;61.97;100025.16;1769743;80;21714;-56
2021/08/31 11:26:31;;;;;;;16.67;11.43;;;;;;;24.65;61.64;100025.48;1787246;79;21228;-56
2021/08/31 11:29:36;;;;;;;16.77;13.60;;;;;;;24.68;60.91;100028.30;1784001;79;21196;-56
2021/08/31 11:32:44;;;;;;;15.38;12.40;;;;;;;24.69;60.36;100025.77;1776490;79;21277;-56
2021/08/31 11:35:52;;;;;;;13.80;11.60;;;;;;;24.74;60.83;100021.04;1777432;79;21251;-56
2021/08/31 11:39:00;;;;;;;15.72;11.70;;;;;;;24.84;60.09;100023.87;1769392;79;21216;-57
2021/08/31 11:42:06;;;;;;;15.43;12.75;;;;;;;24.89;59.63;100011.25;1785165;79;21232;-54
2021/08/31 11:45:16;;;;;;;18.10;12.23;;;;;;;25.00;59.74;100014.38;1777915;79;21209;-56
2021/08/31 11:48:22;;;;;;;17.42;12.07;;;;;;;25.18;58.99;100009.33;1779815;79;21291;-56
2021/08/31 11:51:27;;;;;;;14.33;10.58;;;;;;;25.35;58.61;100015.52;1761006;81;21173;-58
2021/08/31 11:54:36;;;;;;;17.70;11.63;;;;;;;25.39;57.34;100017.47;1788051;79;21758;-56
2021/08/31 11:57:44;;;;;;;12.05;8.78;;;;;;;25.32;56.97;100014.09;1800959;79;21542;-56
2021/08/31 12:00:52;;;;;;;10.08;8.55;;;;;;;25.39;56.94;100016.61;1801113;79;21758;-55
2021/08/31 12:04:00;;;;;;;10.13;8.53;;;;;;;25.53;56.54;100017.75;1798208;79;21264;-56
2021/08/31 12:07:06;;;;;;;10.13;7.90;;;;;;;25.66;56.19;100018.00;1792155;79;21335;-57
2021/08/31 12:10:27;;;;;;;10.90;7.58;;;;;;;25.74;55.63;100009.56;1794195;79;21314;-57
2021/08/31 12:13:33;;;;;;;9.35;7.65;;;;;;;25.80;55.26;100012.07;1780508;79;21213;-55
2021/08/31 12:16:38;;;;;;;8.20;7.28;;;;;;;25.90;54.85;100014.02;1774564;79;21718;-55
2021/08/31 12:19:48;;;;;;;10.53;7.75;;;;;;;25.89;53.83;100001.12;1784250;79;21255;-56
2021/08/31 12:22:55;;;;;;;8.60;7.65;;;;;;;25.88;53.75;100005.03;1775542;79;21177;-56
2021/08/31 12:26:04;;;;;;;8.08;7.28;;;;;;;25.83;53.36;100006.48;1775679;79;21173;-57
2021/08/31 12:29:16;;;;;;;10.40;6.75;;;;;;;25.81;53.09;100006.77;1776910;79;21204;-57
2021/08/31 12:32:28;;;;;;;11.30;7.28;;;;;;;25.80;53.22;99996.65;1770707;79;21813;-56
2021/08/31 12:35:42;;;;;;;10.28;7.10;;;;;;;25.75;53.33;100002.27;1769526;80;21812;-56
2021/08/31 12:38:50;;;;;;;12.10;7.87;;;;;;;25.72;53.02;99995.83;1770454;81;21201;-57
2021/08/31 12:41:54;;;;;;;9.50;6.70;;;;;;;25.75;53.26;99988.83;1770174;79;21228;-57
2021/08/31 12:45:01;;;;;;;8.83;7.12;;;;;;;25.78;53.58;99992.46;1771761;79;21201;-56
2021/08/31 12:48:06;;;;;;;8.08;6.65;;;;;;;25.74;53.18;99999.74;1783045;79;21189;-57
2021/08/31 12:51:14;;;;;;;7.37;6.55;;;;;;;25.66;53.75;99989.95;1780280;79;21213;-56
2021/08/31 12:54:41;;;;;;;8.45;6.60;;;;;;;25.68;54.24;99993.33;1775896;79;21259;-56
2021/08/31 12:57:47;;;;;;;8.53;6.60;;;;;;;25.73;53.65;99975.64;1783018;79;21189;-56
2021/08/31 13:01:16;;;;;;;8.78;6.28;;;;;;;25.72;53.21;99979.00;1776555;79;21170;-57
2021/08/31 13:04:21;;;;;;;9.08;6.62;;;;;;;25.69;53.02;99978.75;1794854;79;21261;-57
2021/08/31 13:07:34;;;;;;;14.13;7.10;;;;;;;25.69;53.38;99978.75;1775631;79;21168;-57
2021/08/31 13:10:52;;;;;;;7.45;6.58;;;;;;;25.69;53.10;99967.53;1763100;80;21195;-56
2021/08/31 13:14:04;;;;;;;9.80;6.83;;;;;;;25.68;53.49;99974.25;1784846;79;21739;-56
2021/08/31 13:17:10;;;;;;;6.80;6.10;;;;;;;25.69;52.97;99984.36;1773087;79;21201;-58
2021/08/31 13:20:17;;;;;;;10.98;6.72;;;;;;;25.65;52.90;99971.46;1787055;79;21556;-56
2021/08/31 13:23:26;;;;;;;8.75;6.30;;;;;;;25.65;53.49;99980.43;1786983;79;21194;-56
2021/08/31 13:26:32;;;;;;;8.85;6.30;;;;;;;25.62;53.19;99981.00;1783232;79;21165;-55
2021/08/31 13:29:41;;;;;;;8.05;6.00;;;;;;;25.57;53.30;99986.06;1782935;79;21764;-57
2021/08/31 13:32:47;;;;;;;10.38;6.22;;;;;;;25.52;52.97;99982.41;1782791;79;21181;-57
2021/08/31 13:35:52;;;;;;;7.25;5.92;;;;;;;25.51;53.22;99984.95;1781435;79;21447;-57
2021/08/31 13:39:00;;;;;;;7.90;6.05;;;;;;;25.54;53.16;99978.77;1770487;80;21232;-57
2021/08/31 13:42:06;;;;;;;7.12;5.12;;;;;;;25.52;53.26;99974.00;1782217;79;21550;-57
2021/08/31 13:45:12;;;;;;;7.85;5.70;;;;;;;25.53;52.66;99962.50;1774845;79;21228;-58
2021/08/31 13:48:18;;;;;;;7.08;5.25;;;;;;;25.54;52.67;99974.02;1770174;80;21193;-57
2021/08/31 13:51:23;;;;;;;8.48;5.60;;;;;;;25.56;52.45;99973.73;1792760;79;21877;-57
2021/08/31 13:54:31;;;;;;;6.65;5.80;;;;;;;25.55;52.17;99965.02;1783746;79;21765;-57
2021/08/31 13:57:37;;;;;;;9.35;6.22;;;;;;;25.56;51.61;99971.74;1799795;79;21177;-56
2021/08/31 14:00:41;;;;;;;6.45;5.70;;;;;;;25.57;51.24;99972.04;1787593;79;21761;-59
2021/08/31 14:03:51;;;;;;;7.22;5.22;;;;;;;25.54;51.13;99967.55;1729381;82;21264;-57
2021/08/31 14:06:57;;;;;;;7.03;4.60;;;;;;;25.56;51.56;99973.73;1727097;82;21329;-55
2021/08/31 14:10:04;;;;;;;6.47;4.95;;;;;;;25.61;50.86;99961.11;1717976;83;21830;-57
2021/08/31 14:13:12;;;;;;;5.55;4.70;;;;;;;25.68;50.05;99965.28;1704885;83;21247;-54
2021/08/31 14:16:18;;;;;;;8.40;5.17;;;;;;;25.72;49.25;99965.56;1712128;83;21752;-55
2021/08/31 14:19:24;;;;;;;5.80;4.53;;;;;;;25.75;48.55;99974.80;1699044;84;21280;-54
2021/08/31 14:22:31;;;;;;;8.08;4.60;;;;;;;25.69;48.24;99968.94;1704574;82;21249;-55
2021/08/31 14:25:36;;;;;;;7.08;3.98;;;;;;;25.65;48.18;99965.00;1705498;83;21222;-56